sensor_id;sensor_type;location;lat;lon;timestamp;temperature;humidity
43143;DHT22;28750;59.842;17.584;2023-06-22T00:02:17;18.50;99.90
43143;DHT22;28750;59.842;17.584;2023-06-22T00:04:44;18.50;99.90
43143;DHT22;28750;59.842;17.584;2023-06-22T00:07:11;18.40;99.90
43143;DHT22;28750;59.842;17.584;2023-06-22T00:09:38;18.40;99.90
43143;DHT22;28750;59.842;17.584;2023-06-22T00:12:05;18.30;99.90
43143;DHT22;28750;59.842;17.584;2023-06-22T00:14:32;18.40;99.90
43143;DHT22;28750;59.842;17.584;2023-06-22T00:16:59;18.30;99.90
43143;DHT22;28750;59.842;17.584;2023-06-22T00:19:26;18.30;99.90
43143;DHT22;28750;59.842;17.584;2023-06-22T00:21:53;18.30;99.90
43143;DHT22;28750;59.842;17.584;2023-06-22T00:24:20;18.30;99.90
43143;DHT22;28750;59.842;17.584;2023-06-22T00:26:47;18.30;99.90
43143;DHT22;28750;59.842;17.584;2023-06-22T00:29:14;18.30;99.90
43143;DHT22;28750;59.842;17.584;2023-06-22T00:31:42;18.30;99.90
43143;DHT22;28750;59.842;17.584;2023-06-22T00:34:09;18.30;99.90
43143;DHT22;28750;59.842;17.584;2023-06-22T00:36:36;18.40;99.90
43143;DHT22;28750;59.842;17.584;2023-06-22T00:39:06;18.50;99.90
43143;DHT22;28750;59.842;17.584;2023-06-22T00:41:33;18.50;99.90
43143;DHT22;28750;59.842;17.584;2023-06-22T00:44:00;18.50;99.90
43143;DHT22;28750;59.842;17.584;2023-06-22T00:46:27;18.50;99.90
43143;DHT22;28750;59.842;17.584;2023-06-22T00:48:54;18.60;99.90
43143;DHT22;28750;59.842;17.584;2023-06-22T00:51:22;18.60;99.90
43143;DHT22;28750;59.842;17.584;2023-06-22T00:53:50;18.60;99.90
43143;DHT22;28750;59.842;17.584;2023-06-22T00:56:18;18.70;99.90
43143;DHT22;28750;59.842;17.584;2023-06-22T00:58:50;18.60;99.90
43143;DHT22;28750;59.842;17.584;2023-06-22T01:01:18;18.60;99.90
43143;DHT22;28750;59.842;17.584;2023-06-22T01:03:48;18.60;99.90
43143;DHT22;28750;59.842;17.584;2023-06-22T01:06:17;18.70;99.90
43143;DHT22;28750;59.842;17.584;2023-06-22T01:08:49;18.60;99.90
43143;DHT22;28750;59.842;17.584;2023-06-22T01:11:20;18.70;99.90
43143;DHT22;28750;59.842;17.584;2023-06-22T01:13:50;18.60;99.90
43143;DHT22;28750;59.842;17.584;2023-06-22T01:16:23;18.60;99.90
43143;DHT22;28750;59.842;17.584;2023-06-22T01:18:52;18.60;99.90
43143;DHT22;28750;59.842;17.584;2023-06-22T01:21:20;18.50;99.90
43143;DHT22;28750;59.842;17.584;2023-06-22T01:28:54;18.50;99.90
43143;DHT22;28750;59.842;17.584;2023-06-22T01:31:23;18.60;99.90
43143;DHT22;28750;59.842;17.584;2023-06-22T01:33:53;18.60;99.90
43143;DHT22;28750;59.842;17.584;2023-06-22T01:36:20;18.60;99.90
43143;DHT22;28750;59.842;17.584;2023-06-22T01:38:48;18.60;99.90
43143;DHT22;28750;59.842;17.584;2023-06-22T01:41:16;18.60;99.90
43143;DHT22;28750;59.842;17.584;2023-06-22T01:43:43;18.50;99.90
43143;DHT22;28750;59.842;17.584;2023-06-22T01:46:10;18.60;99.90
43143;DHT22;28750;59.842;17.584;2023-06-22T01:48:38;18.60;99.90
43143;DHT22;28750;59.842;17.584;2023-06-22T01:51:05;18.60;99.90
43143;DHT22;28750;59.842;17.584;2023-06-22T01:53:33;18.60;99.90
43143;DHT22;28750;59.842;17.584;2023-06-22T01:55:59;18.60;99.90
43143;DHT22;28750;59.842;17.584;2023-06-22T01:58:27;18.50;99.90
43143;DHT22;28750;59.842;17.584;2023-06-22T02:00:56;18.60;99.90
43143;DHT22;28750;59.842;17.584;2023-06-22T02:03:34;18.50;99.90
43143;DHT22;28750;59.842;17.584;2023-06-22T02:06:07;18.50;99.90
43143;DHT22;28750;59.842;17.584;2023-06-22T02:08:41;18.50;99.90
43143;DHT22;28750;59.842;17.584;2023-06-22T02:11:13;18.50;99.90
43143;DHT22;28750;59.842;17.584;2023-06-22T02:13:41;18.60;99.90
43143;DHT22;28750;59.842;17.584;2023-06-22T02:16:12;18.60;99.90
43143;DHT22;28750;59.842;17.584;2023-06-22T02:18:45;18.60;99.90
43143;DHT22;28750;59.842;17.584;2023-06-22T02:21:12;18.60;99.90
43143;DHT22;28750;59.842;17.584;2023-06-22T02:23:39;18.70;99.90
43143;DHT22;28750;59.842;17.584;2023-06-22T02:26:06;18.60;99.90
43143;DHT22;28750;59.842;17.584;2023-06-22T02:28:33;18.60;99.90
43143;DHT22;28750;59.842;17.584;2023-06-22T02:31:00;18.70;99.90
43143;DHT22;28750;59.842;17.584;2023-06-22T02:33:27;18.70;99.90
43143;DHT22;28750;59.842;17.584;2023-06-22T02:35:54;18.70;99.90
43143;DHT22;28750;59.842;17.584;2023-06-22T02:38:21;18.70;99.90
43143;DHT22;28750;59.842;17.584;2023-06-22T02:40:50;18.70;99.90
43143;DHT22;28750;59.842;17.584;2023-06-22T02:43:17;18.70;99.90
43143;DHT22;28750;59.842;17.584;2023-06-22T02:45:44;18.70;99.90
43143;DHT22;28750;59.842;17.584;2023-06-22T02:48:11;18.70;99.90
43143;DHT22;28750;59.842;17.584;2023-06-22T02:50:38;18.80;99.90
43143;DHT22;28750;59.842;17.584;2023-06-22T02:53:04;18.70;99.90
43143;DHT22;28750;59.842;17.584;2023-06-22T02:55:31;18.70;99.90
43143;DHT22;28750;59.842;17.584;2023-06-22T02:57:58;18.70;99.90
43143;DHT22;28750;59.842;17.584;2023-06-22T03:00:30;18.70;99.90
43143;DHT22;28750;59.842;17.584;2023-06-22T03:02:57;18.80;99.90
43143;DHT22;28750;59.842;17.584;2023-06-22T03:05:24;18.70;99.90
43143;DHT22;28750;59.842;17.584;2023-06-22T03:07:51;18.70;99.90
43143;DHT22;28750;59.842;17.584;2023-06-22T03:10:18;18.60;99.90
43143;DHT22;28750;59.842;17.584;2023-06-22T03:12:45;18.70;99.90
43143;DHT22;28750;59.842;17.584;2023-06-22T03:15:12;18.70;99.90
43143;DHT22;28750;59.842;17.584;2023-06-22T03:17:39;18.80;99.90
43143;DHT22;28750;59.842;17.584;2023-06-22T03:20:07;18.80;99.90
43143;DHT22;28750;59.842;17.584;2023-06-22T03:22:36;18.80;99.90
43143;DHT22;28750;59.842;17.584;2023-06-22T03:25:04;18.80;99.90
43143;DHT22;28750;59.842;17.584;2023-06-22T03:27:36;18.90;99.90
43143;DHT22;28750;59.842;17.584;2023-06-22T03:30:03;18.90;99.90
43143;DHT22;28750;59.842;17.584;2023-06-22T03:32:30;18.90;99.90
43143;DHT22;28750;59.842;17.584;2023-06-22T03:34:57;18.90;99.90
43143;DHT22;28750;59.842;17.584;2023-06-22T03:37:25;18.80;99.90
43143;DHT22;28750;59.842;17.584;2023-06-22T03:39:52;18.90;99.90
43143;DHT22;28750;59.842;17.584;2023-06-22T03:42:19;19.00;99.90
43143;DHT22;28750;59.842;17.584;2023-06-22T03:44:46;19.10;99.90
43143;DHT22;28750;59.842;17.584;2023-06-22T03:47:13;19.20;99.90
43143;DHT22;28750;59.842;17.584;2023-06-22T03:49:40;19.20;99.90
43143;DHT22;28750;59.842;17.584;2023-06-22T03:52:07;19.20;99.90
43143;DHT22;28750;59.842;17.584;2023-06-22T03:54:34;19.20;99.90
43143;DHT22;28750;59.842;17.584;2023-06-22T03:57:01;19.10;99.90
43143;DHT22;28750;59.842;17.584;2023-06-22T03:59:28;19.10;99.90
43143;DHT22;28750;59.842;17.584;2023-06-22T04:01:55;19.10;99.90
43143;DHT22;28750;59.842;17.584;2023-06-22T04:04:22;19.00;99.90
43143;DHT22;28750;59.842;17.584;2023-06-22T04:06:49;19.10;99.90
43143;DHT22;28750;59.842;17.584;2023-06-22T04:09:16;19.20;99.90
43143;DHT22;28750;59.842;17.584;2023-06-22T04:11:43;19.30;99.90
43143;DHT22;28750;59.842;17.584;2023-06-22T04:14:10;19.30;99.90
43143;DHT22;28750;59.842;17.584;2023-06-22T04:16:37;19.50;99.90
43143;DHT22;28750;59.842;17.584;2023-06-22T04:19:04;19.50;99.90
43143;DHT22;28750;59.842;17.584;2023-06-22T04:21:31;19.90;99.90
43143;DHT22;28750;59.842;17.584;2023-06-22T04:23:58;19.80;99.90
43143;DHT22;28750;59.842;17.584;2023-06-22T04:26:25;20.00;99.90
43143;DHT22;28750;59.842;17.584;2023-06-22T04:28:52;19.90;2.80
43143;DHT22;28750;59.842;17.584;2023-06-22T04:31:21;20.00;99.90
43143;DHT22;28750;59.842;17.584;2023-06-22T04:33:57;19.90;99.90
43143;DHT22;28750;59.842;17.584;2023-06-22T04:36:31;20.00;99.90
43143;DHT22;28750;59.842;17.584;2023-06-22T04:39:12;20.00;99.90
43143;DHT22;28750;59.842;17.584;2023-06-22T04:41:39;20.30;1.00
43143;DHT22;28750;59.842;17.584;2023-06-22T04:44:09;20.80;99.90
43143;DHT22;28750;59.842;17.584;2023-06-22T04:46:37;20.20;11.50
43143;DHT22;28750;59.842;17.584;2023-06-22T04:49:05;20.00;99.90
43143;DHT22;28750;59.842;17.584;2023-06-22T04:51:39;19.80;99.90
43143;DHT22;28750;59.842;17.584;2023-06-22T04:54:07;19.90;99.90
43143;DHT22;28750;59.842;17.584;2023-06-22T04:56:34;20.10;99.90
43143;DHT22;28750;59.842;17.584;2023-06-22T04:59:02;20.00;99.90
43143;DHT22;28750;59.842;17.584;2023-06-22T05:01:29;20.10;99.90
43143;DHT22;28750;59.842;17.584;2023-06-22T05:03:57;20.00;99.90
43143;DHT22;28750;59.842;17.584;2023-06-22T05:06:26;19.80;99.90
43143;DHT22;28750;59.842;17.584;2023-06-22T05:08:53;19.60;99.90
43143;DHT22;28750;59.842;17.584;2023-06-22T05:11:23;19.50;1.00
43143;DHT22;28750;59.842;17.584;2023-06-22T05:13:50;19.40;1.00
43143;DHT22;28750;59.842;17.584;2023-06-22T05:16:17;19.30;90.70
43143;DHT22;28750;59.842;17.584;2023-06-22T05:18:52;19.30;1.00
43143;DHT22;28750;59.842;17.584;2023-06-22T05:21:23;19.30;99.90
43143;DHT22;28750;59.842;17.584;2023-06-22T05:23:51;19.40;1.00
43143;DHT22;28750;59.842;17.584;2023-06-22T05:26:18;19.50;1.00
43143;DHT22;28750;59.842;17.584;2023-06-22T05:28:46;19.60;1.00
43143;DHT22;28750;59.842;17.584;2023-06-22T05:31:13;19.80;99.90
43143;DHT22;28750;59.842;17.584;2023-06-22T05:33:41;19.60;5.20
43143;DHT22;28750;59.842;17.584;2023-06-22T05:36:08;19.70;1.00
43143;DHT22;28750;59.842;17.584;2023-06-22T05:38:36;19.80;99.90
43143;DHT22;28750;59.842;17.584;2023-06-22T05:41:03;19.90;99.90
43143;DHT22;28750;59.842;17.584;2023-06-22T05:43:30;19.80;99.90
43143;DHT22;28750;59.842;17.584;2023-06-22T05:45:57;20.00;99.90
43143;DHT22;28750;59.842;17.584;2023-06-22T05:48:24;20.10;1.00
43143;DHT22;28750;59.842;17.584;2023-06-22T05:50:51;20.10;1.00
43143;DHT22;28750;59.842;17.584;2023-06-22T05:53:18;20.10;1.00
43143;DHT22;28750;59.842;17.584;2023-06-22T05:55:45;19.90;99.90
43143;DHT22;28750;59.842;17.584;2023-06-22T05:58:12;19.90;99.90
43143;DHT22;28750;59.842;17.584;2023-06-22T06:00:40;19.70;99.90
43143;DHT22;28750;59.842;17.584;2023-06-22T06:03:08;19.80;99.90
43143;DHT22;28750;59.842;17.584;2023-06-22T06:05:35;19.80;44.20
43143;DHT22;28750;59.842;17.584;2023-06-22T06:08:03;20.00;45.70
43143;DHT22;28750;59.842;17.584;2023-06-22T06:10:30;19.80;1.00
43143;DHT22;28750;59.842;17.584;2023-06-22T06:12:57;19.70;1.00
43143;DHT22;28750;59.842;17.584;2023-06-22T06:15:24;19.80;12.30
43143;DHT22;28750;59.842;17.584;2023-06-22T06:17:52;19.90;1.00
43143;DHT22;28750;59.842;17.584;2023-06-22T06:20:24;20.00;22.60
43143;DHT22;28750;59.842;17.584;2023-06-22T06:22:51;20.30;99.90
43143;DHT22;28750;59.842;17.584;2023-06-22T06:25:18;20.60;99.90
43143;DHT22;28750;59.842;17.584;2023-06-22T06:27:47;20.80;31.40
43143;DHT22;28750;59.842;17.584;2023-06-22T06:30:15;21.00;15.80
43143;DHT22;28750;59.842;17.584;2023-06-22T06:32:42;21.00;99.90
43143;DHT22;28750;59.842;17.584;2023-06-22T06:35:11;21.30;99.90
43143;DHT22;28750;59.842;17.584;2023-06-22T06:37:39;21.10;99.90
43143;DHT22;28750;59.842;17.584;2023-06-22T06:40:06;21.10;99.90
43143;DHT22;28750;59.842;17.584;2023-06-22T06:42:45;21.10;99.90
43143;DHT22;28750;59.842;17.584;2023-06-22T06:45:14;21.00;99.90
43143;DHT22;28750;59.842;17.584;2023-06-22T06:47:41;20.80;99.90
43143;DHT22;28750;59.842;17.584;2023-06-22T06:50:09;20.70;99.90
43143;DHT22;28750;59.842;17.584;2023-06-22T06:52:36;20.80;99.90
43143;DHT22;28750;59.842;17.584;2023-06-22T06:55:03;20.80;99.90
43143;DHT22;28750;59.842;17.584;2023-06-22T06:57:33;20.70;99.90
43143;DHT22;28750;59.842;17.584;2023-06-22T07:00:02;20.90;99.90
43143;DHT22;28750;59.842;17.584;2023-06-22T07:02:35;20.90;99.90
43143;DHT22;28750;59.842;17.584;2023-06-22T07:05:02;20.60;99.90
43143;DHT22;28750;59.842;17.584;2023-06-22T07:07:29;20.50;1.00
43143;DHT22;28750;59.842;17.584;2023-06-22T07:09:57;21.00;99.90
43143;DHT22;28750;59.842;17.584;2023-06-22T07:12:24;21.70;99.90
43143;DHT22;28750;59.842;17.584;2023-06-22T07:14:51;21.60;1.00
43143;DHT22;28750;59.842;17.584;2023-06-22T07:17:19;21.60;25.40
43143;DHT22;28750;59.842;17.584;2023-06-22T07:19:46;21.50;99.90
43143;DHT22;28750;59.842;17.584;2023-06-22T07:22:12;21.40;99.90
43143;DHT22;28750;59.842;17.584;2023-06-22T07:24:39;21.80;1.00
43143;DHT22;28750;59.842;17.584;2023-06-22T07:27:06;21.70;1.00
43143;DHT22;28750;59.842;17.584;2023-06-22T07:29:36;21.60;1.00
43143;DHT22;28750;59.842;17.584;2023-06-22T07:32:05;21.70;1.00
43143;DHT22;28750;59.842;17.584;2023-06-22T07:34:32;21.50;1.00
43143;DHT22;28750;59.842;17.584;2023-06-22T07:36:59;21.40;76.30
43143;DHT22;28750;59.842;17.584;2023-06-22T07:39:26;21.20;99.90
43143;DHT22;28750;59.842;17.584;2023-06-22T07:41:53;20.90;99.90
43143;DHT22;28750;59.842;17.584;2023-06-22T07:44:20;21.00;17.90
43143;DHT22;28750;59.842;17.584;2023-06-22T07:46:47;20.80;1.00
43143;DHT22;28750;59.842;17.584;2023-06-22T07:49:14;20.80;72.00
43143;DHT22;28750;59.842;17.584;2023-06-22T07:51:41;21.00;71.30
43143;DHT22;28750;59.842;17.584;2023-06-22T07:54:08;21.40;1.00
43143;DHT22;28750;59.842;17.584;2023-06-22T07:56:36;21.30;99.90
43143;DHT22;28750;59.842;17.584;2023-06-22T07:59:03;21.00;1.00
43143;DHT22;28750;59.842;17.584;2023-06-22T08:01:30;21.10;10.30
43143;DHT22;28750;59.842;17.584;2023-06-22T08:03:57;21.00;45.70
43143;DHT22;28750;59.842;17.584;2023-06-22T08:06:24;21.20;99.90
43143;DHT22;28750;59.842;17.584;2023-06-22T08:08:51;21.20;1.00
43143;DHT22;28750;59.842;17.584;2023-06-22T08:11:19;21.20;1.00
43143;DHT22;28750;59.842;17.584;2023-06-22T08:13:47;21.50;1.00
43143;DHT22;28750;59.842;17.584;2023-06-22T08:16:14;22.80;99.90
43143;DHT22;28750;59.842;17.584;2023-06-22T08:18:41;24.00;43.30
43143;DHT22;28750;59.842;17.584;2023-06-22T08:21:08;24.00;99.90
43143;DHT22;28750;59.842;17.584;2023-06-22T08:23:36;23.30;99.90
43143;DHT22;28750;59.842;17.584;2023-06-22T08:26:03;22.80;99.90
43143;DHT22;28750;59.842;17.584;2023-06-22T08:28:30;22.70;99.90
43143;DHT22;28750;59.842;17.584;2023-06-22T08:30:57;22.90;99.90
43143;DHT22;28750;59.842;17.584;2023-06-22T08:33:24;23.30;1.00
43143;DHT22;28750;59.842;17.584;2023-06-22T08:35:55;23.90;99.90
43143;DHT22;28750;59.842;17.584;2023-06-22T08:38:22;24.90;99.90
43143;DHT22;28750;59.842;17.584;2023-06-22T08:40:49;25.30;70.70
43143;DHT22;28750;59.842;17.584;2023-06-22T08:43:16;24.20;99.90
43143;DHT22;28750;59.842;17.584;2023-06-22T08:45:44;24.70;8.80
43143;DHT22;28750;59.842;17.584;2023-06-22T08:48:11;24.00;7.80
43143;DHT22;28750;59.842;17.584;2023-06-22T08:50:38;23.40;99.90
43143;DHT22;28750;59.842;17.584;2023-06-22T08:53:05;23.30;99.90
43143;DHT22;28750;59.842;17.584;2023-06-22T08:55:33;22.60;99.90
43143;DHT22;28750;59.842;17.584;2023-06-22T08:58:00;22.80;99.90
43143;DHT22;28750;59.842;17.584;2023-06-22T09:00:27;24.20;99.90
43143;DHT22;28750;59.842;17.584;2023-06-22T09:02:58;25.40;16.40
43143;DHT22;28750;59.842;17.584;2023-06-22T09:05:25;26.10;99.90
43143;DHT22;28750;59.842;17.584;2023-06-22T09:07:52;25.00;99.90
43143;DHT22;28750;59.842;17.584;2023-06-22T09:10:20;25.30;1.00
43143;DHT22;28750;59.842;17.584;2023-06-22T09:12:47;26.00;1.00
43143;DHT22;28750;59.842;17.584;2023-06-22T09:15:14;26.50;99.90
43143;DHT22;28750;59.842;17.584;2023-06-22T09:17:41;25.40;99.90
43143;DHT22;28750;59.842;17.584;2023-06-22T09:20:08;25.40;99.90
43143;DHT22;28750;59.842;17.584;2023-06-22T09:22:36;25.90;99.90
43143;DHT22;28750;59.842;17.584;2023-06-22T09:25:04;26.40;99.90
43143;DHT22;28750;59.842;17.584;2023-06-22T09:27:31;26.50;32.10
43143;DHT22;28750;59.842;17.584;2023-06-22T09:29:58;26.70;27.50
43143;DHT22;28750;59.842;17.584;2023-06-22T09:32:25;27.40;1.00
43143;DHT22;28750;59.842;17.584;2023-06-22T09:34:52;26.10;1.00
43143;DHT22;28750;59.842;17.584;2023-06-22T09:37:19;25.20;1.00
43143;DHT22;28750;59.842;17.584;2023-06-22T09:39:46;27.00;19.90
43143;DHT22;28750;59.842;17.584;2023-06-22T09:42:13;26.20;1.00
43143;DHT22;28750;59.842;17.584;2023-06-22T09:44:40;24.90;1.00
43143;DHT22;28750;59.842;17.584;2023-06-22T09:47:07;25.70;27.20
43143;DHT22;28750;59.842;17.584;2023-06-22T09:49:34;26.10;1.00
43143;DHT22;28750;59.842;17.584;2023-06-22T09:52:01;26.20;1.00
43143;DHT22;28750;59.842;17.584;2023-06-22T09:54:28;26.50;1.00
43143;DHT22;28750;59.842;17.584;2023-06-22T09:56:55;26.80;1.00
43143;DHT22;28750;59.842;17.584;2023-06-22T09:59:22;26.90;99.90
43143;DHT22;28750;59.842;17.584;2023-06-22T10:01:49;26.20;1.00
43143;DHT22;28750;59.842;17.584;2023-06-22T10:04:16;26.50;99.90
43143;DHT22;28750;59.842;17.584;2023-06-22T10:06:42;26.20;1.00
43143;DHT22;28750;59.842;17.584;2023-06-22T10:09:09;25.40;1.00
43143;DHT22;28750;59.842;17.584;2023-06-22T10:11:36;25.90;1.00
43143;DHT22;28750;59.842;17.584;2023-06-22T10:14:03;26.80;1.00
43143;DHT22;28750;59.842;17.584;2023-06-22T10:16:31;27.00;99.90
43143;DHT22;28750;59.842;17.584;2023-06-22T10:18:58;26.40;99.90
43143;DHT22;28750;59.842;17.584;2023-06-22T10:21:25;25.80;99.90
43143;DHT22;28750;59.842;17.584;2023-06-22T10:23:54;27.30;99.90
43143;DHT22;28750;59.842;17.584;2023-06-22T10:26:21;27.10;99.90
43143;DHT22;28750;59.842;17.584;2023-06-22T10:28:49;26.30;99.90
43143;DHT22;28750;59.842;17.584;2023-06-22T10:31:16;26.80;99.90
43143;DHT22;28750;59.842;17.584;2023-06-22T10:33:43;27.40;99.90
43143;DHT22;28750;59.842;17.584;2023-06-22T10:36:10;26.10;99.90
43143;DHT22;28750;59.842;17.584;2023-06-22T10:38:37;26.30;99.90
43143;DHT22;28750;59.842;17.584;2023-06-22T10:41:04;27.40;99.90
43143;DHT22;28750;59.842;17.584;2023-06-22T10:43:32;28.70;99.90
43143;DHT22;28750;59.842;17.584;2023-06-22T10:45:59;28.10;99.90
43143;DHT22;28750;59.842;17.584;2023-06-22T10:48:26;28.20;99.90
43143;DHT22;28750;59.842;17.584;2023-06-22T10:50:53;27.30;99.90
43143;DHT22;28750;59.842;17.584;2023-06-22T10:53:20;26.80;99.90
43143;DHT22;28750;59.842;17.584;2023-06-22T10:55:47;27.30;99.90
43143;DHT22;28750;59.842;17.584;2023-06-22T10:58:14;26.60;99.90
43143;DHT22;28750;59.842;17.584;2023-06-22T11:00:41;27.50;99.90
43143;DHT22;28750;59.842;17.584;2023-06-22T11:03:08;26.90;99.90
43143;DHT22;28750;59.842;17.584;2023-06-22T11:05:35;27.90;99.90
43143;DHT22;28750;59.842;17.584;2023-06-22T11:08:02;27.30;99.90
43143;DHT22;28750;59.842;17.584;2023-06-22T11:10:29;27.10;99.90
43143;DHT22;28750;59.842;17.584;2023-06-22T11:12:56;28.30;99.90
43143;DHT22;28750;59.842;17.584;2023-06-22T11:15:24;28.00;99.90
43143;DHT22;28750;59.842;17.584;2023-06-22T11:17:51;28.90;99.90
43143;DHT22;28750;59.842;17.584;2023-06-22T11:20:18;27.90;99.90
43143;DHT22;28750;59.842;17.584;2023-06-22T11:22:45;28.60;99.90
43143;DHT22;28750;59.842;17.584;2023-06-22T11:25:12;28.70;99.90
43143;DHT22;28750;59.842;17.584;2023-06-22T11:27:39;27.90;99.90
43143;DHT22;28750;59.842;17.584;2023-06-22T11:30:07;28.20;95.20
43143;DHT22;28750;59.842;17.584;2023-06-22T11:32:34;28.90;99.90
43143;DHT22;28750;59.842;17.584;2023-06-22T11:35:01;29.20;80.70
43143;DHT22;28750;59.842;17.584;2023-06-22T11:37:28;28.80;78.20
43143;DHT22;28750;59.842;17.584;2023-06-22T11:39:55;27.80;63.90
43143;DHT22;28750;59.842;17.584;2023-06-22T11:42:23;28.70;90.60
43143;DHT22;28750;59.842;17.584;2023-06-22T11:44:50;28.40;74.50
43143;DHT22;28750;59.842;17.584;2023-06-22T11:47:17;27.70;45.50
43143;DHT22;28750;59.842;17.584;2023-06-22T11:49:45;28.50;58.00
43143;DHT22;28750;59.842;17.584;2023-06-22T11:52:12;29.70;48.50
43143;DHT22;28750;59.842;17.584;2023-06-22T11:54:39;29.00;29.40
43143;DHT22;28750;59.842;17.584;2023-06-22T11:57:06;27.50;1.00
43143;DHT22;28750;59.842;17.584;2023-06-22T11:59:33;27.30;34.70
43143;DHT22;28750;59.842;17.584;2023-06-22T12:02:00;27.60;20.60
43143;DHT22;28750;59.842;17.584;2023-06-22T12:04:27;27.40;23.10
43143;DHT22;28750;59.842;17.584;2023-06-22T12:06:54;28.80;12.70
43143;DHT22;28750;59.842;17.584;2023-06-22T12:09:21;29.50;1.00
43143;DHT22;28750;59.842;17.584;2023-06-22T12:11:48;30.10;1.00
43143;DHT22;28750;59.842;17.584;2023-06-22T12:14:15;29.70;1.00
43143;DHT22;28750;59.842;17.584;2023-06-22T12:16:42;29.70;1.00
43143;DHT22;28750;59.842;17.584;2023-06-22T12:19:10;30.90;1.00
43143;DHT22;28750;59.842;17.584;2023-06-22T12:21:37;30.80;1.00
43143;DHT22;28750;59.842;17.584;2023-06-22T12:24:06;30.00;1.00
43143;DHT22;28750;59.842;17.584;2023-06-22T12:26:33;29.30;1.00
43143;DHT22;28750;59.842;17.584;2023-06-22T12:29:00;28.40;1.00
43143;DHT22;28750;59.842;17.584;2023-06-22T12:31:27;28.40;1.00
43143;DHT22;28750;59.842;17.584;2023-06-22T12:33:54;29.00;1.00
43143;DHT22;28750;59.842;17.584;2023-06-22T12:36:21;29.30;1.00
43143;DHT22;28750;59.842;17.584;2023-06-22T12:38:49;29.10;1.00
43143;DHT22;28750;59.842;17.584;2023-06-22T12:41:17;28.60;1.00
43143;DHT22;28750;59.842;17.584;2023-06-22T12:43:44;29.10;1.00
43143;DHT22;28750;59.842;17.584;2023-06-22T12:46:11;29.00;1.00
43143;DHT22;28750;59.842;17.584;2023-06-22T12:48:38;29.60;1.00
43143;DHT22;28750;59.842;17.584;2023-06-22T12:51:08;29.90;1.00
43143;DHT22;28750;59.842;17.584;2023-06-22T12:53:35;28.60;1.00
43143;DHT22;28750;59.842;17.584;2023-06-22T12:56:02;28.60;1.00
43143;DHT22;28750;59.842;17.584;2023-06-22T12:58:29;29.90;1.00
43143;DHT22;28750;59.842;17.584;2023-06-22T13:00:56;30.80;1.00
43143;DHT22;28750;59.842;17.584;2023-06-22T13:03:23;30.10;1.00
43143;DHT22;28750;59.842;17.584;2023-06-22T13:05:52;31.20;1.00
43143;DHT22;28750;59.842;17.584;2023-06-22T13:08:19;30.60;1.00
43143;DHT22;28750;59.842;17.584;2023-06-22T13:10:46;29.60;1.00
43143;DHT22;28750;59.842;17.584;2023-06-22T13:13:13;28.60;99.90
43143;DHT22;28750;59.842;17.584;2023-06-22T13:15:40;28.70;1.00
43143;DHT22;28750;59.842;17.584;2023-06-22T13:18:07;28.80;1.00
43143;DHT22;28750;59.842;17.584;2023-06-22T13:20:34;28.70;99.90
43143;DHT22;28750;59.842;17.584;2023-06-22T13:23:01;29.40;99.90
43143;DHT22;28750;59.842;17.584;2023-06-22T13:25:28;30.20;1.00
43143;DHT22;28750;59.842;17.584;2023-06-22T13:27:55;30.70;99.90
43143;DHT22;28750;59.842;17.584;2023-06-22T13:30:22;30.00;99.90
43143;DHT22;28750;59.842;17.584;2023-06-22T13:32:49;28.60;99.90
43143;DHT22;28750;59.842;17.584;2023-06-22T13:35:16;29.50;99.90
43143;DHT22;28750;59.842;17.584;2023-06-22T13:37:43;30.10;99.90
43143;DHT22;28750;59.842;17.584;2023-06-22T13:40:10;30.10;99.90
43143;DHT22;28750;59.842;17.584;2023-06-22T13:42:38;30.40;99.90
43143;DHT22;28750;59.842;17.584;2023-06-22T13:45:05;29.50;99.90
43143;DHT22;28750;59.842;17.584;2023-06-22T13:47:32;28.90;99.90
43143;DHT22;28750;59.842;17.584;2023-06-22T13:49:59;28.10;99.90
43143;DHT22;28750;59.842;17.584;2023-06-22T13:52:26;27.90;99.90
43143;DHT22;28750;59.842;17.584;2023-06-22T13:54:54;28.90;99.90
43143;DHT22;28750;59.842;17.584;2023-06-22T13:57:21;28.70;99.90
43143;DHT22;28750;59.842;17.584;2023-06-22T13:59:48;28.30;99.90
43143;DHT22;28750;59.842;17.584;2023-06-22T14:02:15;29.40;99.90
43143;DHT22;28750;59.842;17.584;2023-06-22T14:04:42;30.00;99.90
43143;DHT22;28750;59.842;17.584;2023-06-22T14:07:09;29.80;99.90
43143;DHT22;28750;59.842;17.584;2023-06-22T14:09:36;29.90;99.90
43143;DHT22;28750;59.842;17.584;2023-06-22T14:12:06;29.50;99.90
43143;DHT22;28750;59.842;17.584;2023-06-22T14:14:33;29.40;99.90
43143;DHT22;28750;59.842;17.584;2023-06-22T14:17:00;30.30;99.90
43143;DHT22;28750;59.842;17.584;2023-06-22T14:19:27;30.00;99.90
43143;DHT22;28750;59.842;17.584;2023-06-22T14:21:54;29.50;99.90
43143;DHT22;28750;59.842;17.584;2023-06-22T14:24:24;29.60;99.90
43143;DHT22;28750;59.842;17.584;2023-06-22T14:26:51;30.10;99.90
43143;DHT22;28750;59.842;17.584;2023-06-22T14:29:18;29.20;99.90
43143;DHT22;28750;59.842;17.584;2023-06-22T14:31:46;29.50;99.90
43143;DHT22;28750;59.842;17.584;2023-06-22T14:34:13;29.30;99.90
43143;DHT22;28750;59.842;17.584;2023-06-22T14:36:40;28.40;99.90
43143;DHT22;28750;59.842;17.584;2023-06-22T14:39:08;28.00;99.90
43143;DHT22;28750;59.842;17.584;2023-06-22T14:41:35;28.30;99.90
43143;DHT22;28750;59.842;17.584;2023-06-22T14:44:02;29.10;99.90
43143;DHT22;28750;59.842;17.584;2023-06-22T14:46:29;29.60;99.90
43143;DHT22;28750;59.842;17.584;2023-06-22T14:48:56;29.60;99.90
43143;DHT22;28750;59.842;17.584;2023-06-22T14:51:23;29.30;99.90
43143;DHT22;28750;59.842;17.584;2023-06-22T14:53:50;28.60;99.90
43143;DHT22;28750;59.842;17.584;2023-06-22T14:56:17;28.50;99.90
43143;DHT22;28750;59.842;17.584;2023-06-22T14:58:44;28.00;99.90
43143;DHT22;28750;59.842;17.584;2023-06-22T15:01:11;28.50;99.90
43143;DHT22;28750;59.842;17.584;2023-06-22T15:03:40;28.70;99.90
43143;DHT22;28750;59.842;17.584;2023-06-22T15:06:07;28.80;99.90
43143;DHT22;28750;59.842;17.584;2023-06-22T15:08:36;28.70;99.90
43143;DHT22;28750;59.842;17.584;2023-06-22T15:11:03;28.30;99.90
43143;DHT22;28750;59.842;17.584;2023-06-22T15:13:31;27.70;99.90
43143;DHT22;28750;59.842;17.584;2023-06-22T15:15:59;27.30;99.90
43143;DHT22;28750;59.842;17.584;2023-06-22T15:18:26;27.20;99.90
43143;DHT22;28750;59.842;17.584;2023-06-22T15:20:53;27.50;99.90
43143;DHT22;28750;59.842;17.584;2023-06-22T15:23:20;27.90;99.90
43143;DHT22;28750;59.842;17.584;2023-06-22T15:25:47;27.80;99.90
43143;DHT22;28750;59.842;17.584;2023-06-22T15:28:14;27.80;99.90